createdAt,value
2022-08-02T00:00:17.666Z,101026.56
2022-08-02T00:03:08.032Z,101030.34
2022-08-02T00:05:57.906Z,101033.52
2022-08-02T00:08:47.806Z,101032.80
2022-08-02T00:11:38.915Z,101033.48
2022-08-02T00:14:35.813Z,101028.12
2022-08-02T00:17:26.199Z,101029.02
2022-08-02T00:20:16.523Z,101027.60
2022-08-02T00:23:06.457Z,101030.02
2022-08-02T00:25:56.284Z,101032.77
2022-08-02T00:29:02.071Z,101032.09
2022-08-02T00:31:52.456Z,101036.14
2022-08-02T00:34:42.974Z,101031.36
2022-08-02T00:37:40.158Z,101034.77
2022-08-02T00:40:30.267Z,101031.30
2022-08-02T00:43:20.645Z,101030.83
2022-08-02T00:46:10.981Z,101030.80
2022-08-02T00:49:01.571Z,101030.66
2022-08-02T00:51:59.443Z,101022.89
2022-08-02T00:54:49.551Z,101019.63
2022-08-02T00:57:39.919Z,101019.00
2022-08-02T01:00:30.278Z,101018.01
2022-08-02T01:03:20.928Z,101017.52
2022-08-02T01:06:12.068Z,101016.13
2022-08-02T01:09:02.974Z,101020.35
2022-08-02T01:11:53.426Z,101020.00
2022-08-02T01:14:47.108Z,101019.48
2022-08-02T01:17:45.848Z,101016.48
2022-08-02T01:20:56.571Z,101012.11
2022-08-02T01:24:05.425Z,101014.91
2022-08-02T01:27:02.519Z,101018.25
2022-08-02T01:29:58.054Z,101015.80
2022-08-02T01:32:52.184Z,101015.95
2022-08-02T01:35:51.235Z,101014.17
2022-08-02T01:38:44.496Z,101016.17
2022-08-02T01:41:36.352Z,101019.96
2022-08-02T01:44:29.981Z,101017.08
2022-08-02T01:47:24.134Z,101018.44
2022-08-02T01:50:18.434Z,101016.02
2022-08-02T01:53:11.288Z,101016.58
2022-08-02T01:56:03.114Z,101014.45
2022-08-02T01:58:54.368Z,101017.47
2022-08-02T02:01:47.686Z,101016.25
2022-08-02T02:04:39.457Z,101014.86
2022-08-02T02:07:31.585Z,101008.92
2022-08-02T02:10:27.116Z,101010.34
2022-08-02T02:13:28.796Z,101009.30
2022-08-02T02:16:27.390Z,101008.70
2022-08-02T02:19:20.922Z,101005.30
2022-08-02T02:22:12.015Z,101003.88
2022-08-02T02:25:06.298Z,101001.88
2022-08-02T02:28:01.942Z,101003.36
2022-08-02T02:30:53.705Z,101003.60
2022-08-02T02:33:50.082Z,101003.44
2022-08-02T02:36:41.502Z,101000.00
2022-08-02T02:39:32.777Z,101001.46
2022-08-02T02:42:25.322Z,100998.73
2022-08-02T02:45:16.724Z,101000.08
2022-08-02T02:48:08.691Z,100998.13
2022-08-02T02:51:00.175Z,100999.61
2022-08-02T02:54:32.169Z,100998.92
2022-08-02T02:57:03.236Z,100997.58
2022-08-02T02:59:55.070Z,100998.14
2022-08-02T03:02:47.413Z,100998.91
2022-08-02T03:05:38.033Z,100994.30
2022-08-02T03:08:29.136Z,100993.83
2022-08-02T03:11:20.171Z,100989.45
2022-08-02T03:14:19.866Z,100991.30
2022-08-02T03:17:09.887Z,100989.90
2022-08-02T03:20:00.028Z,100990.55
2022-08-02T03:22:50.967Z,100992.77
2022-08-02T03:25:41.464Z,100992.14
2022-08-02T03:28:31.920Z,100991.96
2022-08-02T03:31:21.832Z,100991.85
2022-08-02T03:34:13.475Z,100993.49
2022-08-02T03:37:04.978Z,100989.30
2022-08-02T03:39:56.056Z,100988.61
2022-08-02T03:42:46.923Z,100987.80
2022-08-02T03:45:37.671Z,100984.86
2022-08-02T03:48:31.852Z,100984.99
2022-08-02T03:51:25.528Z,100985.36
2022-08-02T03:54:18.534Z,100988.40
2022-08-02T03:57:11.666Z,100984.98
2022-08-02T04:00:01.935Z,100990.27
2022-08-02T04:03:02.234Z,100986.70
2022-08-02T04:05:59.217Z,100989.85
2022-08-02T04:08:54.385Z,100994.33
2022-08-02T04:11:44.510Z,100998.59
2022-08-02T04:14:36.093Z,101000.83
2022-08-02T04:18:33.056Z,101002.52
2022-08-02T04:20:41.779Z,101004.73
2022-08-02T04:23:34.854Z,101008.13
2022-08-02T04:26:28.255Z,101006.72
2022-08-02T04:29:20.282Z,101003.10
2022-08-02T04:32:11.488Z,101005.27
2022-08-02T04:38:13.661Z,101008.80
2022-08-02T04:41:04.183Z,101015.67
2022-08-02T04:43:55.135Z,101017.54
2022-08-02T04:46:47.008Z,101021.73
2022-08-02T04:49:37.241Z,101025.29
2022-08-02T04:52:27.603Z,101030.98
2022-08-02T04:55:17.785Z,101033.99
2022-08-02T04:58:36.992Z,101037.67
2022-08-02T05:01:19.735Z,101044.41
2022-08-02T05:04:10.604Z,101049.42
2022-08-02T05:07:00.794Z,101053.08
2022-08-02T05:09:50.994Z,101060.73
2022-08-02T05:12:42.539Z,101061.41
2022-08-02T05:15:33.496Z,101061.28
2022-08-02T05:18:23.505Z,101063.36
2022-08-02T05:21:13.298Z,101064.42
2022-08-02T05:24:22.435Z,101067.41
2022-08-02T05:27:16.564Z,101069.22
2022-08-02T05:30:13.434Z,101074.39
2022-08-02T05:33:03.257Z,101074.87
2022-08-02T05:35:53.010Z,101079.98
2022-08-02T05:38:43.111Z,101080.62
2022-08-02T05:41:49.984Z,101085.33
2022-08-02T05:44:42.098Z,101088.65
2022-08-02T05:47:32.334Z,101090.42
2022-08-02T05:50:24.498Z,101093.27
2022-08-02T05:53:25.033Z,101098.45
2022-08-02T05:56:25.875Z,101098.28
2022-08-02T05:59:26.019Z,101096.10
2022-08-02T06:02:30.221Z,101099.84
2022-08-02T06:05:22.995Z,101094.35
2022-08-02T06:08:14.379Z,101102.59
2022-08-02T06:11:06.763Z,101106.66
2022-08-02T06:13:57.284Z,101106.95
2022-08-02T06:16:47.643Z,101106.10
2022-08-02T06:19:51.466Z,101104.56
2022-08-02T06:22:44.862Z,101104.20
2022-08-02T06:25:50.681Z,101108.43
2022-08-02T06:28:42.133Z,101106.06
2022-08-02T06:31:35.642Z,101109.14
2022-08-02T06:34:25.899Z,101111.21
2022-08-02T06:37:28.161Z,101114.56
2022-08-02T06:40:28.251Z,101117.33
2022-08-02T06:43:23.079Z,101121.13
2022-08-02T06:46:55.932Z,101125.91
2022-08-02T06:49:24.732Z,101130.91
2022-08-02T06:52:36.459Z,101134.80
2022-08-02T06:55:27.781Z,101136.34
2022-08-02T06:58:17.837Z,101139.23
2022-08-02T07:01:09.891Z,101141.73
2022-08-02T07:04:00.602Z,101148.19
2022-08-02T07:06:50.492Z,101149.30
2022-08-02T07:09:56.346Z,101153.98
2022-08-02T07:12:52.570Z,101158.35
2022-08-02T07:15:48.975Z,101159.13
2022-08-02T07:18:39.809Z,101161.90
2022-08-02T07:21:56.667Z,101160.90
2022-08-02T07:24:42.903Z,101161.56
2022-08-02T07:27:36.332Z,101160.48
2022-08-02T07:30:25.870Z,101164.55
2022-08-02T07:33:38.958Z,101168.98
2022-08-02T07:36:26.860Z,101165.38
2022-08-02T07:39:17.224Z,101164.19
2022-08-02T07:42:09.096Z,101159.90
2022-08-02T07:45:08.327Z,101164.39
2022-08-02T07:47:59.211Z,101162.94
2022-08-02T07:50:50.676Z,101159.27
2022-08-02T07:53:51.433Z,101160.18
2022-08-02T07:56:59.020Z,101159.02
2022-08-02T07:59:50.980Z,101156.36
2022-08-02T08:02:41.247Z,101154.77
2022-08-02T08:05:32.000Z,101154.35
2022-08-02T08:08:21.918Z,101154.86
2022-08-02T08:11:12.300Z,101157.30
2022-08-02T08:14:02.895Z,101160.81
2022-08-02T08:16:53.206Z,101161.89
2022-08-02T08:19:50.870Z,101157.42
2022-08-02T08:22:43.227Z,101162.79
2022-08-02T08:25:39.640Z,101167.73
2022-08-02T08:28:31.853Z,101166.45
2022-08-02T08:31:22.263Z,101165.35
2022-08-02T08:34:12.659Z,101168.55
2022-08-02T08:37:04.044Z,101166.84
2022-08-02T08:39:58.137Z,101165.52
2022-08-02T08:42:48.937Z,101166.33
2022-08-02T08:45:39.963Z,101166.59
2022-08-02T08:48:33.448Z,101165.56
2022-08-02T08:51:26.309Z,101166.38
2022-08-02T08:54:18.702Z,101164.04
2022-08-02T08:57:09.969Z,101168.01
2022-08-02T09:00:03.987Z,101174.92
2022-08-02T09:02:54.773Z,101175.31
2022-08-02T09:05:46.947Z,101181.65
2022-08-02T09:08:36.526Z,101182.79
2022-08-02T09:11:27.960Z,101186.08
2022-08-02T09:14:29.636Z,101185.66
2022-08-02T09:17:21.392Z,101191.22
2022-08-02T09:20:13.462Z,101189.27
2022-08-02T09:23:12.002Z,101188.85
2022-08-02T09:26:08.102Z,101192.80
2022-08-02T09:29:03.329Z,101191.59
2022-08-02T09:31:52.891Z,101196.56
2022-08-02T09:34:54.347Z,101197.58
2022-08-02T09:37:48.572Z,101194.58
2022-08-02T09:40:40.582Z,101188.88
2022-08-02T09:43:52.014Z,101187.10
2022-08-02T09:46:55.685Z,101183.91
2022-08-02T09:49:52.661Z,101189.61
2022-08-02T09:52:45.898Z,101192.09
2022-08-02T09:55:37.077Z,101178.48
2022-08-02T09:58:29.069Z,101185.79
2022-08-02T10:01:32.897Z,101169.90
2022-08-02T10:04:30.630Z,101169.33
2022-08-02T10:07:22.401Z,101174.27
2022-08-02T10:10:13.530Z,101176.73
2022-08-02T10:13:04.517Z,101179.10
2022-08-02T10:15:55.344Z,101186.39
2022-08-02T10:18:45.662Z,101190.87
2022-08-02T10:21:51.251Z,101186.94
2022-08-02T10:24:48.227Z,101187.84
2022-08-02T10:28:04.170Z,101185.19
2022-08-02T10:30:52.974Z,101180.90
2022-08-02T10:33:49.873Z,101181.26
2022-08-02T10:36:43.223Z,101179.74
2022-08-02T10:39:41.783Z,101181.33
2022-08-02T10:42:48.935Z,101179.33
2022-08-02T10:45:38.644Z,101187.27
2022-08-02T10:48:28.457Z,101187.73
2022-08-02T10:51:18.520Z,101186.48
2022-08-02T10:54:21.149Z,101177.67
2022-08-02T10:57:22.793Z,101177.86
2022-08-02T11:00:27.298Z,101183.15
2022-08-02T11:03:45.933Z,101179.73
2022-08-02T11:06:37.004Z,101172.93
2022-08-02T11:09:33.341Z,101172.91
2022-08-02T11:12:25.026Z,101169.06
2022-08-02T11:15:16.506Z,101172.81
2022-08-02T11:18:06.889Z,101176.05
2022-08-02T11:21:26.092Z,101169.30
2022-08-02T11:24:31.229Z,101164.39
2022-08-02T11:27:25.100Z,101158.48
2022-08-02T11:30:17.647Z,101158.63
2022-08-02T11:33:08.573Z,101160.23
2022-08-02T11:36:05.958Z,101161.63
2022-08-02T11:39:12.211Z,101154.48
2022-08-02T11:42:02.874Z,101156.17
2022-08-02T11:44:53.576Z,101158.96
2022-08-02T11:47:50.752Z,101158.91
2022-08-02T11:50:41.477Z,101168.45
2022-08-02T11:53:35.879Z,101171.91
2022-08-02T11:56:32.750Z,101175.20
2022-08-02T11:59:23.515Z,101175.59
2022-08-02T12:02:14.900Z,101178.55
2022-08-02T12:05:08.845Z,101178.63
2022-08-02T12:08:00.215Z,101174.36
2022-08-02T12:10:53.159Z,101175.50
2022-08-02T12:13:57.317Z,101176.66
2022-08-02T12:17:06.922Z,101179.85
2022-08-02T12:19:57.722Z,101183.89
2022-08-02T12:22:47.808Z,101187.00
2022-08-02T12:25:39.096Z,101180.52
2022-08-02T12:28:29.781Z,101173.77
2022-08-02T12:31:20.268Z,101179.21
2022-08-02T12:34:17.708Z,101190.08
2022-08-02T12:37:09.759Z,101191.10
2022-08-02T12:40:00.548Z,101196.83
2022-08-02T12:42:52.989Z,101198.30
2022-08-02T12:45:51.058Z,101198.55
2022-08-02T12:48:56.523Z,101198.58
2022-08-02T12:51:59.994Z,101191.48
2022-08-02T12:54:53.001Z,101186.83
2022-08-02T12:57:57.546Z,101185.05
2022-08-02T13:00:59.456Z,101181.95
2022-08-02T13:04:07.545Z,101182.77
2022-08-02T13:07:00.232Z,101175.77
2022-08-02T13:09:50.617Z,101172.77
2022-08-02T13:12:51.022Z,101169.44
2022-08-02T13:15:48.909Z,101159.06
2022-08-02T13:18:49.668Z,101162.07
2022-08-02T13:21:41.606Z,101160.66
2022-08-02T13:24:56.569Z,101166.27
2022-08-02T13:27:49.995Z,101163.89
2022-08-02T13:30:40.562Z,101155.17
2022-08-02T13:33:30.901Z,101152.67
2022-08-02T13:36:20.868Z,101153.98
2022-08-02T13:39:12.112Z,101157.00
2022-08-02T13:42:02.274Z,101155.38
2022-08-02T13:44:52.599Z,101155.40
2022-08-02T13:48:03.388Z,101150.05
2022-08-02T13:50:54.210Z,101150.40
2022-08-02T13:53:45.403Z,101151.01
2022-08-02T13:56:36.161Z,101148.70
2022-08-02T13:59:56.153Z,101144.95
2022-08-02T14:02:40.343Z,101140.90
2022-08-02T14:05:39.589Z,101135.91
2022-08-02T14:08:38.417Z,101133.55
2022-08-02T14:11:30.980Z,101131.77
2022-08-02T14:14:20.525Z,101132.36
2022-08-02T14:17:11.263Z,101130.81
2022-08-02T14:20:01.344Z,101134.19
2022-08-02T14:22:51.137Z,101135.83
2022-08-02T14:25:41.336Z,101132.63
2022-08-02T14:28:31.847Z,101134.27
2022-08-02T14:31:21.823Z,101129.83
2022-08-02T14:34:12.730Z,101123.26
2022-08-02T14:37:03.367Z,101122.92
2022-08-02T14:40:00.417Z,101127.59
2022-08-02T14:42:51.816Z,101127.88
2022-08-02T14:45:42.507Z,101124.60
2022-08-02T14:48:32.573Z,101112.13
2022-08-02T14:51:22.967Z,101109.30
2022-08-02T14:54:14.657Z,101106.34
2022-08-02T14:57:06.220Z,101104.19
2022-08-02T14:59:56.963Z,101103.11
2022-08-02T15:02:49.237Z,101098.08
2022-08-02T15:05:40.575Z,101100.65
2022-08-02T15:08:30.350Z,101099.34
2022-08-02T15:11:20.300Z,101100.95
2022-08-02T15:14:11.517Z,101101.89
2022-08-02T15:17:01.059Z,101099.90
2022-08-02T15:19:59.185Z,101101.14
2022-08-02T15:22:49.944Z,101101.62
2022-08-02T15:25:41.739Z,101103.39
2022-08-02T15:28:32.307Z,101102.95
2022-08-02T15:31:32.953Z,101108.11
2022-08-02T15:34:23.689Z,101110.35
2022-08-02T15:37:14.121Z,101106.12
2022-08-02T15:40:04.680Z,101102.09
2022-08-02T15:42:55.283Z,101101.60
2022-08-02T15:45:45.802Z,101102.48
2022-08-02T15:48:35.800Z,101098.98
2022-08-02T15:51:26.817Z,101106.29
2022-08-02T15:54:16.856Z,101105.86
2022-08-02T15:57:07.424Z,101098.86
2022-08-02T15:59:58.316Z,101099.05
2022-08-02T16:02:48.680Z,101095.44
2022-08-02T16:05:38.495Z,101095.77
2022-08-02T16:08:28.577Z,101097.79
2022-08-02T16:11:18.259Z,101088.83
2022-08-02T16:14:08.083Z,101083.57
2022-08-02T16:16:57.864Z,101081.84
2022-08-02T16:19:49.966Z,101079.66
2022-08-02T16:22:42.903Z,101076.88
2022-08-02T16:25:33.201Z,101077.86
2022-08-02T16:28:23.481Z,101071.95
2022-08-02T16:31:14.234Z,101070.58
2022-08-02T16:34:05.174Z,101069.94
2022-08-02T16:36:55.706Z,101070.62
2022-08-02T16:39:45.668Z,101065.36
2022-08-02T16:42:35.640Z,101063.31
2022-08-02T16:45:26.953Z,101061.42
2022-08-02T16:48:17.218Z,101059.64
2022-08-02T16:51:13.608Z,101055.42
2022-08-02T16:54:04.243Z,101053.31
2022-08-02T16:56:58.211Z,101053.86
2022-08-02T16:59:57.801Z,101052.08
2022-08-02T17:02:48.545Z,101050.63
2022-08-02T17:05:56.722Z,101047.09
2022-08-02T17:08:54.466Z,101051.81
2022-08-02T17:11:46.827Z,101055.80
2022-08-02T17:14:41.894Z,101060.91
2022-08-02T17:17:45.981Z,101057.20
2022-08-02T17:20:36.391Z,101058.84
2022-08-02T17:24:05.400Z,101055.29
2022-08-02T17:26:51.050Z,101057.08
2022-08-02T17:29:42.100Z,101062.11
2022-08-02T17:32:32.415Z,101059.25
2022-08-02T17:35:22.663Z,101052.37
2022-08-02T17:38:34.390Z,101054.36
2022-08-02T17:41:49.488Z,101057.39
2022-08-02T17:44:41.410Z,101059.27
2022-08-02T17:47:42.308Z,101064.66
2022-08-02T17:50:32.971Z,101065.17
2022-08-02T17:53:22.918Z,101070.93
2022-08-02T17:56:12.680Z,101072.33
2022-08-02T17:59:20.909Z,101072.94
2022-08-02T18:02:12.172Z,101065.59
2022-08-02T18:05:02.325Z,101068.25
2022-08-02T18:11:03.205Z,101069.16
2022-08-02T18:13:53.433Z,101070.64
2022-08-02T18:16:43.790Z,101069.44
2022-08-02T18:19:42.526Z,101068.08
2022-08-02T18:22:44.969Z,101072.98
2022-08-02T18:25:46.699Z,101076.24
2022-08-02T18:28:38.531Z,101076.19
2022-08-02T18:31:39.265Z,101078.27
2022-08-02T18:34:31.582Z,101077.41
2022-08-02T18:37:22.290Z,101077.04
2022-08-02T18:40:13.490Z,101073.86
2022-08-02T18:43:06.989Z,101076.58
2022-08-02T18:46:05.778Z,101080.67
2022-08-02T18:49:14.597Z,101087.83
2022-08-02T18:52:04.897Z,101090.03
2022-08-02T18:54:57.254Z,101086.73
2022-08-02T18:58:17.178Z,101089.40
2022-08-02T19:00:57.039Z,101092.06
2022-08-02T19:03:49.620Z,101096.00
2022-08-02T19:06:39.522Z,101097.54
2022-08-02T19:09:29.309Z,101098.38
2022-08-02T19:12:27.829Z,101099.30
2022-08-02T19:15:18.848Z,101105.73
2022-08-02T19:18:09.587Z,101107.98
2022-08-02T19:21:05.321Z,101111.92
2022-08-02T19:23:57.333Z,101117.30
2022-08-02T19:26:51.806Z,101115.11
2022-08-02T19:29:50.832Z,101116.11
2022-08-02T19:32:59.237Z,101121.08
2022-08-02T19:36:02.111Z,101120.92
2022-08-02T19:38:55.501Z,101118.98
2022-08-02T19:41:47.130Z,101122.66
2022-08-02T19:44:37.171Z,101128.88
2022-08-02T19:47:38.383Z,101133.21
2022-08-02T19:50:28.985Z,101135.33
2022-08-02T19:53:19.394Z,101140.76
2022-08-02T19:56:09.703Z,101138.93
2022-08-02T19:58:59.772Z,101140.08
2022-08-02T20:01:51.292Z,101142.15
2022-08-02T20:04:41.496Z,101142.20
2022-08-02T20:07:54.507Z,101146.66
2022-08-02T20:10:46.559Z,101144.98
2022-08-02T20:13:47.307Z,101147.23
2022-08-02T20:16:38.244Z,101151.35
2022-08-02T20:19:32.439Z,101151.42
2022-08-02T20:22:27.037Z,101148.66
2022-08-02T20:25:17.169Z,101144.70
2022-08-02T20:28:07.665Z,101145.41
2022-08-02T20:30:58.458Z,101151.45
2022-08-02T20:33:57.217Z,101154.03
2022-08-02T20:36:47.016Z,101154.64
2022-08-02T20:39:44.610Z,101148.92
2022-08-02T20:42:35.432Z,101152.77
2022-08-02T20:45:27.056Z,101154.56
2022-08-02T20:48:17.121Z,101159.52
2022-08-02T20:51:09.719Z,101162.52
2022-08-02T20:54:03.615Z,101163.70
2022-08-02T20:56:53.689Z,101161.08
2022-08-02T20:59:56.678Z,101163.41
2022-08-02T21:02:48.077Z,101160.82
2022-08-02T21:08:46.040Z,101159.18
2022-08-02T21:11:36.349Z,101161.33
2022-08-02T21:14:25.958Z,101157.82
2022-08-02T21:17:18.091Z,101161.73
2022-08-02T21:20:17.006Z,101162.11
2022-08-02T21:23:07.950Z,101166.11
2022-08-02T21:26:09.845Z,101167.77
2022-08-02T21:29:00.953Z,101166.11
2022-08-02T21:31:54.884Z,101166.18
2022-08-02T21:34:44.919Z,101162.01
2022-08-02T21:37:45.067Z,101166.06
2022-08-02T21:40:35.439Z,101167.02
2022-08-02T21:43:35.488Z,101168.36
2022-08-02T21:46:29.422Z,101171.16
2022-08-02T21:49:20.620Z,101167.02
2022-08-02T21:52:11.354Z,101168.03
2022-08-02T21:55:02.590Z,101164.61
2022-08-02T21:57:52.766Z,101173.95
2022-08-02T22:00:43.150Z,101169.58
2022-08-02T22:03:34.279Z,101169.73
2022-08-02T22:06:25.776Z,101167.33
2022-08-02T22:09:43.983Z,101168.19
2022-08-02T22:12:28.460Z,101169.67
2022-08-02T22:15:18.465Z,101168.98
2022-08-02T22:18:29.206Z,101170.09
2022-08-02T22:21:23.915Z,101175.11
2022-08-02T22:24:19.338Z,101179.79
2022-08-02T22:27:09.675Z,101177.84
2022-08-02T22:30:03.577Z,101179.94
2022-08-02T22:33:15.084Z,101179.44
2022-08-02T22:36:05.722Z,101179.17
2022-08-02T22:39:02.765Z,101175.52
2022-08-02T22:42:05.118Z,101173.63
2022-08-02T22:44:56.852Z,101176.66
2022-08-02T22:47:50.993Z,101178.54
2022-08-02T22:50:42.260Z,101178.83
2022-08-02T22:53:36.092Z,101183.90
2022-08-02T22:56:26.898Z,101182.25
2022-08-02T22:58:58.994Z,101071.66
2022-08-02T23:02:09.851Z,101183.88
2022-08-02T23:05:00.869Z,101180.73
2022-08-02T23:07:50.939Z,101177.30
2022-08-02T23:10:40.510Z,101179.60
2022-08-02T23:13:30.441Z,101182.69
2022-08-02T23:16:40.298Z,101183.04
2022-08-02T23:19:49.319Z,101184.52
2022-08-02T23:22:40.372Z,101189.86
2022-08-02T23:25:30.845Z,101182.36
2022-08-02T23:28:21.102Z,101182.45
2022-08-02T23:31:38.174Z,101184.17
2022-08-02T23:34:28.376Z,101182.11
2022-08-02T23:37:21.194Z,101179.94
2022-08-02T23:40:13.068Z,101180.85
2022-08-02T23:43:18.904Z,101180.10
2022-08-02T23:46:09.372Z,101175.54
2022-08-02T23:49:00.652Z,101173.46
2022-08-02T23:51:51.658Z,101173.18
2022-08-02T23:54:41.423Z,101173.30
2022-08-02T23:57:31.968Z,101173.42
